Terminal Aerodrome Forecast
Issued by NWS

Home | Current Version | Previous Version | Text Only | Print | Product List | Glossary On
Versions: 1 2 3 4 5 6 7 8 9 10 11 12 13
971
FTUS43 KSGF 200520
TAFBBG
TAF
KBBG 200520Z 2006/2106 20008G12KT P6SM BKN250 WS020/23050KT
     FM200700 20008KT P6SM SCT025 BKN250 WS020/23055KT
     FM201000 19007KT P6SM BKN025 BKN250 WS020/23050KT
     FM202100 17010KT P6SM SCT045 WS020/21040KT
     FM210400 16006KT P6SM BKN030
     FM210500 17006KT P6SM BKN020=

USA.gov is the U.S. government's official web portal to all federal, state and local government web resources and services.